Time;durP1;ratioP1;P1;durP2;ratioP2;P2;SDS_P1;SDS_P2;PMS_P1;PMS_P2;Temp;Humidity;BMP_temperature;BMP_pressure;BME280_temperature;BME280_humidity;BME280_pressure;Samples;Min_cycle;Max_cycle;Signal;HPM_P1;HPM_P2
2023/04/07 00:00:50;;;;;;;;;3.75;3.25;;;;;10.65;38.91;99320.63;5045434;28;45567;-77
2023/04/07 00:03:15;;;;;;;;;3.25;3.25;;;;;10.64;39.84;99318.91;5047867;27;46165;-77
2023/04/07 00:05:41;;;;;;;;;5.00;3.00;;;;;10.63;39.45;99322.44;5049144;28;45394;-77
2023/04/07 00:08:06;;;;;;;;;4.50;4.00;;;;;10.61;39.63;99325.13;5053413;28;45401;-77
2023/04/07 00:10:32;;;;;;;;;5.50;4.00;;;;;10.59;39.77;99318.19;5052617;28;45653;-77
2023/04/07 00:12:57;;;;;;;;;4.50;4.50;;;;;10.55;40.03;99324.53;5050328;28;45659;-77
2023/04/07 00:15:23;;;;;;;;;4.00;4.00;;;;;10.50;39.80;99324.69;5053001;28;45386;-77
2023/04/07 00:17:48;;;;;;;;;4.75;3.50;;;;;10.45;40.55;99321.34;5048734;28;45452;-77
2023/04/07 00:20:14;;;;;;;;;4.00;3.00;;;;;10.41;40.58;99325.84;5047222;28;45549;-77
2023/04/07 00:22:39;;;;;;;;;3.75;3.00;;;;;10.39;40.93;99321.59;5053077;28;45565;-78
2023/04/07 00:25:05;;;;;;;;;6.50;5.00;;;;;10.34;41.27;99310.34;5051862;28;45322;-78
2023/04/07 00:27:30;;;;;;;;;5.50;4.75;;;;;10.30;41.42;99308.72;5068324;27;45497;-77
2023/04/07 00:29:56;;;;;;;;;3.75;3.75;;;;;10.27;41.08;99306.19;5054140;28;45564;-78
2023/04/07 00:32:21;;;;;;;;;5.00;4.00;;;;;10.24;41.27;99311.56;5051945;28;45545;-77
2023/04/07 00:34:47;;;;;;;;;2.75;2.75;;;;;10.22;41.14;99305.53;5054126;28;45369;-77
2023/04/07 00:37:12;;;;;;;;;3.00;3.00;;;;;10.19;41.37;99303.00;5053543;28;45721;-77
2023/04/07 00:39:38;;;;;;;;;4.00;3.25;;;;;10.16;41.24;99296.00;5053352;28;45448;-77
2023/04/07 00:42:06;;;;;;;;;7.25;4.00;;;;;10.14;41.35;99289.94;5054062;28;45971;-78
2023/04/07 00:44:32;;;;;;;;;6.00;6.00;;;;;10.11;41.51;99282.13;5051258;28;45354;-77
2023/04/07 00:46:58;;;;;;;;;7.33;4.00;;;;;10.10;41.73;99275.16;5053640;28;45459;-77
2023/04/07 00:49:25;;;;;;;;;6.67;5.00;;;;;10.05;41.97;99269.22;5056512;28;45321;-77
2023/04/07 00:51:51;;;;;;;;;11.00;5.00;;;;;10.03;41.88;99260.50;5069054;27;45466;-77
2023/04/07 00:54:17;;;;;;;;;5.00;5.00;;;;;10.01;42.06;99257.06;5051046;28;45427;-77
2023/04/07 00:56:43;;;;;;;;;6.67;5.67;;;;;9.96;42.03;99257.19;5044662;28;45410;-77
2023/04/07 00:59:08;;;;;;;;;5.00;5.00;;;;;9.91;41.67;99260.91;5050902;28;45524;-78
2023/04/07 01:01:45;;;;;;;;;5.00;5.00;;;;;9.87;42.40;99262.81;5051208;28;45475;-77
2023/04/07 01:05:06;;;;;;;;;5.00;4.00;;;;;9.81;42.34;99268.28;5045090;28;45411;-79
2023/04/07 01:07:47;;;;;;;;;4.75;4.25;;;;;9.75;42.17;99274.59;5051258;28;45556;-77
2023/04/07 01:10:18;;;;;;;;;5.33;4.33;;;;;9.71;42.83;99273.00;5057607;28;45641;-77
2023/04/07 01:12:56;;;;;;;;;8.33;5.00;;;;;9.67;42.73;99267.91;5044072;28;45676;-77
2023/04/07 01:15:26;;;;;;;;;5.67;5.67;;;;;9.63;42.80;99276.81;5057106;28;45456;-77
2023/04/07 01:17:58;;;;;;;;;3.00;3.00;;;;;9.60;42.72;99269.00;5056312;28;45626;-78
2023/04/07 01:20:26;;;;;;;;;4.67;4.67;;;;;9.56;42.89;99267.38;5051255;28;45582;-77
2023/04/07 01:22:57;;;;;;;;;4.00;3.00;;;;;9.54;42.75;99274.50;5053130;28;45502;-77
2023/04/07 01:25:46;;;;;;;;;8.00;4.33;;;;;9.51;43.35;99271.97;5053603;28;45368;-77
2023/04/07 01:28:49;;;;;;;;;5.00;4.00;;;;;9.44;43.23;99272.16;5049670;28;45583;-77
2023/04/07 01:31:16;;;;;;;;;2.00;2.00;;;;;9.41;43.76;99274.88;5055462;28;45669;-77
2023/04/07 01:33:44;;;;;;;;;3.67;3.67;;;;;9.39;44.19;99270.56;5053718;28;46291;-78
2023/04/07 01:36:11;;;;;;;;;7.00;5.00;;;;;9.36;44.13;99271.56;5051876;28;45530;-77
2023/04/07 01:38:37;;;;;;;;;5.67;5.00;;;;;9.35;43.93;99274.25;5046193;28;45424;-77
2023/04/07 01:41:04;;;;;;;;;3.75;3.00;;;;;9.33;43.92;99281.31;5055330;28;45413;-77
2023/04/07 01:43:31;;;;;;;;;10.00;7.33;;;;;9.31;43.75;99289.25;5053369;28;45402;-78
2023/04/07 01:45:57;;;;;;;;;7.00;6.67;;;;;9.29;43.59;99275.28;5047280;28;45484;-78
2023/04/07 01:48:23;;;;;;;;;4.67;4.67;;;;;9.28;43.87;99268.31;5044870;28;45493;-78
2023/04/07 01:50:49;;;;;;;;;4.00;4.00;;;;;9.28;44.16;99272.69;5081892;27;45454;-77
2023/04/07 01:53:15;;;;;;;;;6.00;4.67;;;;;9.24;45.77;99274.56;5055579;28;45427;-77
2023/04/07 01:55:42;;;;;;;;;6.00;4.00;;;;;9.20;44.63;99278.22;5047084;28;45346;-77
2023/04/07 01:58:08;;;;;;;;;6.33;4.00;;;;;9.09;44.81;99275.91;5041658;28;45580;-77
2023/04/07 02:00:33;;;;;;;;;3.00;3.00;;;;;9.02;44.89;99270.91;5049055;28;45553;-77
2023/04/07 02:03:07;;;;;;;;;5.00;5.00;;;;;8.96;44.86;99271.97;5051963;28;45731;-77
2023/04/07 02:05:35;;;;;;;;;3.50;3.50;;;;;8.91;44.77;99267.75;5051079;28;45388;-77
2023/04/07 02:08:04;;;;;;;;;5.00;5.00;;;;;8.87;45.36;99274.88;5044135;28;45456;-77
2023/04/07 02:10:34;;;;;;;;;4.33;4.00;;;;;8.80;45.23;99272.47;5055979;28;45392;-77
2023/04/07 02:13:03;;;;;;;;;5.00;4.00;;;;;8.74;45.57;99274.38;5044111;28;45519;-77
2023/04/07 02:15:30;;;;;;;;;5.33;3.67;;;;;8.72;45.61;99268.28;5056953;28;45532;-77
2023/04/07 02:17:58;;;;;;;;;5.00;3.33;;;;;8.68;45.67;99271.09;5058535;28;45346;-77
2023/04/07 02:20:23;;;;;;;;;3.33;3.33;;;;;8.63;45.75;99271.22;5050099;28;45495;-77
2023/04/07 02:22:49;;;;;;;;;4.67;4.00;;;;;8.61;46.17;99273.03;5057424;28;45610;-76
2023/04/07 02:25:30;;;;;;;;;4.00;3.67;;;;;8.56;45.80;99271.44;5057475;28;45375;-76
2023/04/07 02:27:57;;;;;;;;;3.00;3.00;;;;;8.54;45.99;99268.88;5056403;28;45477;-76
2023/04/07 02:30:23;;;;;;;;;4.00;4.00;;;;;8.54;45.82;99260.13;5056020;28;45408;-76
2023/04/07 02:32:49;;;;;;;;;4.67;3.00;;;;;8.55;46.29;99253.94;5055811;28;46392;-76
2023/04/07 02:35:15;;;;;;;;;3.00;3.00;;;;;8.56;46.00;99253.03;5057311;28;45355;-77
2023/04/07 02:37:41;;;;;;;;;2.33;2.33;;;;;8.55;45.59;99267.09;5072496;27;45464;-76
2023/04/07 02:40:07;;;;;;;;;3.00;3.00;;;;;8.53;45.49;99261.91;5070616;27;45553;-76
2023/04/07 02:42:33;;;;;;;;;4.00;3.67;;;;;8.52;45.92;99268.06;5048600;27;45585;-76
2023/04/07 02:44:59;;;;;;;;;4.00;4.00;;;;;8.53;45.81;99272.41;5053949;28;45576;-76
2023/04/07 02:47:25;;;;;;;;;5.67;2.67;;;;;8.51;45.75;99263.72;5064473;28;45623;-76
2023/04/07 02:49:50;;;;;;;;;2.00;2.00;;;;;8.53;45.74;99261.03;5054913;28;45395;-76
2023/04/07 02:52:16;;;;;;;;;4.33;4.33;;;;;8.51;45.78;99257.59;5042249;28;45515;-75
2023/04/07 02:54:42;;;;;;;;;2.67;2.67;;;;;8.49;46.01;99259.41;5052831;28;45389;-76
2023/04/07 02:57:07;;;;;;;;;6.00;4.25;;;;;8.48;46.00;99255.91;5054294;28;45448;-76
2023/04/07 02:59:32;;;;;;;;;4.67;4.67;;;;;8.46;46.14;99239.31;5061555;28;45480;-76
2023/04/07 03:01:58;;;;;;;;;4.67;3.67;;;;;8.46;46.14;99239.31;5061541;28;45392;-76
2023/04/07 03:04:23;;;;;;;;;5.00;4.00;;;;;8.45;46.40;99242.84;5057228;28;45408;-76
2023/04/07 03:06:49;;;;;;;;;4.67;3.67;;;;;8.46;46.64;99231.44;5062672;28;45536;-76
2023/04/07 03:09:14;;;;;;;;;4.00;4.00;;;;;8.46;46.80;99234.06;5055284;28;45488;-77
2023/04/07 03:11:40;;;;;;;;;3.00;3.00;;;;;8.45;46.93;99231.50;5053062;28;46324;-77
2023/04/07 03:14:06;;;;;;;;;2.33;2.33;;;;;8.46;46.92;99231.44;5051868;28;45609;-76
2023/04/07 03:16:31;;;;;;;;;4.33;4.00;;;;;8.45;47.16;99223.59;5055594;28;45439;-77
2023/04/07 03:18:57;;;;;;;;;3.00;3.00;;;;;8.46;47.01;99222.72;5058656;28;45460;-77
2023/04/07 03:21:22;;;;;;;;;3.00;3.00;;;;;8.44;47.07;99217.50;5054074;28;46009;-77
2023/04/07 03:23:47;;;;;;;;;4.00;3.00;;;;;8.44;47.35;99214.88;5077967;27;45423;-77
2023/04/07 03:26:13;;;;;;;;;3.00;3.00;;;;;8.45;47.42;99218.34;5052727;28;45447;-80
2023/04/07 03:28:38;;;;;;;;;4.67;3.00;;;;;8.45;47.58;99223.59;5054898;28;45534;-77
2023/04/07 03:31:04;;;;;;;;;4.00;3.67;;;;;8.44;47.15;99217.50;5053963;28;46452;-77
2023/04/07 03:33:29;;;;;;;;;4.33;4.00;;;;;8.42;47.51;99219.31;5059257;28;45441;-77
2023/04/07 03:35:55;;;;;;;;;10.00;10.00;;;;;8.42;47.48;99214.03;5065105;28;45546;-77
2023/04/07 03:38:20;;;;;;;;;4.33;4.00;;;;;8.42;47.94;99210.56;5053655;28;45706;-77
2023/04/07 03:40:46;;;;;;;;;3.67;3.67;;;;;8.40;46.91;99210.59;5069952;28;48379;-77
2023/04/07 03:43:14;;;;;;;;;2.00;2.00;;;;;8.37;46.68;99208.94;5067542;28;45397;-77
2023/04/07 03:45:40;;;;;;;;;6.67;3.00;;;;;8.36;46.71;99206.38;5053902;28;45517;-77
2023/04/07 03:48:09;;;;;;;;;3.67;2.67;;;;;8.34;46.39;99198.53;5053817;28;45414;-77
2023/04/07 03:50:35;;;;;;;;;4.00;2.67;;;;;8.31;46.38;99202.97;5050161;28;47137;-77
2023/04/07 03:53:00;;;;;;;;;2.00;2.00;;;;;8.29;46.49;99199.53;5048707;28;45447;-77
2023/04/07 03:55:26;;;;;;;;;5.00;3.00;;;;;8.29;46.52;99199.53;5038124;28;45436;-76
2023/04/07 03:57:52;;;;;;;;;0.00;0.00;;;;;8.28;46.62;99200.44;5045695;28;46181;-77
2023/04/07 04:00:17;;;;;;;;;2.50;2.50;;;;;8.29;46.88;99199.53;5043137;28;48271;-77
2023/04/07 04:02:43;;;;;;;;;2.67;2.67;;;;;8.27;46.90;99196.94;5051024;28;45388;-77
2023/04/07 04:05:08;;;;;;;;;3.00;3.00;;;;;8.27;46.71;99196.09;5061788;27;45416;-77
2023/04/07 04:07:34;;;;;;;;;6.33;3.00;;;;;8.27;46.82;99202.19;5051298;28;45478;-77
2023/04/07 04:10:00;;;;;;;;;8.33;4.33;;;;;8.28;46.76;99195.19;5069602;28;48053;-77
2023/04/07 04:12:26;;;;;;;;;3.00;3.00;;;;;8.30;46.83;99185.50;5058792;28;45350;-76
2023/04/07 04:14:52;;;;;;;;;6.00;4.00;;;;;8.33;46.78;99188.06;5044148;28;45543;-77
2023/04/07 04:17:17;;;;;;;;;4.33;4.00;;;;;8.33;46.97;99177.56;5052570;28;45626;-77
2023/04/07 04:19:42;;;;;;;;;4.00;4.00;;;;;8.36;47.24;99182.72;5054675;28;45443;-77
2023/04/07 04:22:08;;;;;;;;;4.00;4.00;;;;;8.37;47.40;99179.19;5047958;28;45499;-77
2023/04/07 04:24:33;;;;;;;;;3.67;3.67;;;;;8.36;47.33;99182.72;5061510;28;45389;-77
2023/04/07 04:27:00;;;;;;;;;4.00;4.00;;;;;8.37;47.29;99187.06;5051712;28;45689;-77
2023/04/07 04:29:26;;;;;;;;;3.33;3.33;;;;;8.40;47.60;99200.97;5058226;28;45597;-78
2023/04/07 04:31:52;;;;;;;;;3.00;3.00;;;;;8.42;47.60;99189.53;5053249;27;45440;-78
2023/04/07 04:34:17;;;;;;;;;6.67;3.00;;;;;8.43;47.09;99194.75;5047684;28;45435;-78
2023/04/07 04:36:42;;;;;;;;;4.67;3.00;;;;;8.45;47.35;99197.34;5054609;28;45356;-77
2023/04/07 04:39:08;;;;;;;;;4.00;4.00;;;;;8.43;47.81;99201.78;5069448;28;46869;-77
2023/04/07 04:41:33;;;;;;;;;5.00;3.00;;;;;8.35;47.53;99189.75;5068886;27;45571;-77
2023/04/07 04:43:59;;;;;;;;;3.33;3.33;;;;;8.32;47.51;99194.22;5046581;28;45332;-78
2023/04/07 04:46:25;;;;;;;;;4.00;4.00;;;;;8.29;47.70;99189.88;5056158;28;45383;-78
2023/04/07 04:48:51;;;;;;;;;5.33;5.00;;;;;8.26;47.34;99187.34;5052545;28;46735;-78
2023/04/07 04:51:17;;;;;;;;;7.00;4.33;;;;;8.25;47.18;99183.00;5051824;28;45505;-77
2023/04/07 04:53:42;;;;;;;;;4.67;4.67;;;;;8.26;47.44;99174.22;5061905;27;45495;-77
2023/04/07 04:56:07;;;;;;;;;4.00;4.00;;;;;8.33;47.17;99174.94;5053323;28;45578;-78
2023/04/07 04:58:34;;;;;;;;;4.00;2.00;;;;;8.35;46.85;99171.38;5054709;28;46326;-78
2023/04/07 05:01:00;;;;;;;;;3.00;3.00;;;;;8.36;46.81;99175.72;5059622;28;45456;-78
2023/04/07 05:03:27;;;;;;;;;3.00;3.00;;;;;8.38;46.81;99167.75;5053405;28;45445;-78
2023/04/07 05:05:52;;;;;;;;;2.00;2.00;;;;;8.38;46.44;99171.25;5061198;28;45425;-77
2023/04/07 05:08:17;;;;;;;;;5.67;4.00;;;;;8.38;47.29;99173.00;5058203;28;46319;-78
2023/04/07 05:10:43;;;;;;;;;3.00;2.67;;;;;8.34;47.19;99171.41;5052088;28;45406;-77
2023/04/07 05:13:08;;;;;;;;;3.00;3.00;;;;;8.28;48.12;99167.16;5051127;28;45734;-76
2023/04/07 05:15:34;;;;;;;;;9.25;4.75;;;;;8.22;48.16;99169.94;5051471;28;45373;-77
2023/04/07 05:17:59;;;;;;;;;4.00;2.67;;;;;8.23;48.04;99179.56;5045570;28;46569;-79
2023/04/07 05:20:25;;;;;;;;;2.25;2.00;;;;;8.24;47.09;99181.28;5064552;28;45435;-78
2023/04/07 05:22:50;;;;;;;;;2.00;1.75;;;;;8.26;46.82;99184.72;5060392;28;45415;-78
2023/04/07 05:25:16;;;;;;;;;4.33;3.00;;;;;8.26;47.89;99176.84;5043821;28;45567;-78
2023/04/07 05:27:41;;;;;;;;;3.67;3.67;;;;;8.28;47.88;99171.53;5058146;28;46256;-79
2023/04/07 05:30:07;;;;;;;;;4.00;4.00;;;;;8.29;47.22;99174.13;5052084;28;45410;-78
2023/04/07 05:32:33;;;;;;;;;3.00;3.00;;;;;8.30;47.35;99173.22;5052770;28;45496;-79
2023/04/07 05:34:58;;;;;;;;;4.00;3.00;;;;;8.31;47.49;99168.84;5052369;28;45435;-79
2023/04/07 05:37:23;;;;;;;;;3.67;3.00;;;;;8.34;47.46;99172.25;5052388;28;45716;-78
2023/04/07 05:39:49;;;;;;;;;6.00;6.00;;;;;8.39;47.68;99167.72;5062024;28;45372;-79
2023/04/07 05:42:14;;;;;;;;;5.00;5.00;;;;;8.45;47.47;99171.94;5043806;28;45416;-79
2023/04/07 05:44:40;;;;;;;;;4.33;4.00;;;;;8.48;47.33;99174.47;5050400;28;45460;-78
2023/04/07 05:47:07;;;;;;;;;6.67;4.67;;;;;8.47;47.67;99178.00;5051270;28;45532;-78
2023/04/07 05:49:36;;;;;;;;;6.33;5.00;;;;;8.46;47.75;99181.53;5050743;28;45440;-79
2023/04/07 05:52:02;;;;;;;;;4.00;4.00;;;;;8.40;47.37;99173.81;5053201;28;45540;-78
2023/04/07 05:54:28;;;;;;;;;4.00;2.67;;;;;8.38;47.24;99175.63;5062365;28;45530;-79
2023/04/07 05:56:53;;;;;;;;;5.67;4.00;;;;;8.42;47.32;99181.66;5052788;28;45455;-78
2023/04/07 05:59:19;;;;;;;;;3.75;3.25;;;;;8.41;46.69;99167.66;5071090;27;45473;-79
2023/04/07 06:01:44;;;;;;;;;2.25;2.00;;;;;8.46;46.57;99172.78;5057430;28;45411;-78
2023/04/07 06:04:10;;;;;;;;;4.33;3.00;;;;;8.52;46.57;99185.75;5059986;28;45511;-79
2023/04/07 06:06:35;;;;;;;;;6.33;4.00;;;;;8.56;46.57;99182.94;5042786;28;46922;-78
2023/04/07 06:09:00;;;;;;;;;4.00;2.00;;;;;8.59;46.84;99187.25;5050942;28;45559;-78
2023/04/07 06:11:26;;;;;;;;;3.67;3.67;;;;;8.61;46.65;99190.69;5056093;28;45409;-79
2023/04/07 06:13:52;;;;;;;;;2.00;2.00;;;;;8.60;46.74;99195.09;5065897;28;45592;-78
2023/04/07 06:16:17;;;;;;;;;3.00;3.00;;;;;8.65;46.55;99189.72;5052287;28;46333;-80
2023/04/07 06:18:43;;;;;;;;;2.67;2.67;;;;;8.72;46.82;99188.59;5055006;28;45346;-79
2023/04/07 06:21:08;;;;;;;;;2.00;2.00;;;;;8.81;46.85;99184.81;5047957;28;45441;-79
2023/04/07 06:23:33;;;;;;;;;3.75;3.00;;;;;8.89;46.24;99185.44;5062684;28;45355;-79
2023/04/07 06:26:00;;;;;;;;;4.00;3.00;;;;;8.98;46.37;99187.78;5048926;28;45544;-79
2023/04/07 06:28:26;;;;;;;;;4.00;3.00;;;;;9.08;46.18;99187.41;5055402;28;45358;-78
2023/04/07 06:30:54;;;;;;;;;5.75;3.00;;;;;9.18;46.34;99185.34;5071508;28;45419;-78
2023/04/07 06:33:27;;;;;;;;;3.00;3.00;;;;;9.25;46.17;99184.22;5055061;28;45575;-79
2023/04/07 06:35:53;;;;;;;;;4.00;4.00;;;;;9.30;46.10;99179.66;5055886;28;45450;-78
2023/04/07 06:38:18;;;;;;;;;3.00;3.00;;;;;9.39;45.96;99192.50;5058207;28;45426;-78
2023/04/07 06:40:45;;;;;;;;;4.25;3.00;;;;;9.50;46.30;99197.41;5053787;28;45579;-78
2023/04/07 06:43:10;;;;;;;;;5.00;4.33;;;;;9.58;46.37;99191.88;5057404;28;45652;-78
2023/04/07 06:45:36;;;;;;;;;4.00;2.75;;;;;9.62;46.63;99189.06;5062325;27;45497;-78
2023/04/07 06:48:01;;;;;;;;;4.25;2.25;;;;;9.69;46.60;99189.72;5056668;28;45528;-78
2023/04/07 06:50:26;;;;;;;;;5.00;4.00;;;;;9.74;46.35;99193.91;5048499;28;45381;-78
2023/04/07 06:52:52;;;;;;;;;4.00;4.00;;;;;9.79;46.60;99196.38;5049369;28;45426;-80
2023/04/07 06:55:17;;;;;;;;;3.00;3.00;;;;;9.80;46.12;99220.03;5072361;27;46556;-78
2023/04/07 06:57:43;;;;;;;;;4.00;4.00;;;;;9.76;46.04;99218.41;5058491;28;45368;-78
2023/04/07 07:00:09;;;;;;;;;9.50;5.25;;;;;9.78;46.63;99221.00;5059699;28;45957;-79
2023/04/07 07:02:34;;;;;;;;;6.00;6.00;;;;;9.72;47.41;99224.69;5057859;28;45421;-79
2023/04/07 07:05:01;;;;;;;;;4.50;2.25;;;;;9.72;48.02;99227.31;5054776;28;46584;-78
2023/04/07 07:07:27;;;;;;;;;8.00;8.00;;;;;9.63;48.41;99238.19;5058697;28;45516;-77
2023/04/07 07:09:52;;;;;;;;;6.00;5.33;;;;;9.59;48.54;99238.31;5073870;27;45512;-78
2023/04/07 07:12:18;;;;;;;;;5.00;5.00;;;;;9.58;48.96;99236.59;5047536;28;45422;-78
2023/04/07 07:14:43;;;;;;;;;9.33;6.00;;;;;9.59;48.99;99244.44;5052324;28;45526;-78
2023/04/07 07:17:09;;;;;;;;;9.50;7.50;;;;;9.62;49.06;99232.97;5049595;28;45751;-78
2023/04/07 07:19:34;;;;;;;;;6.50;5.50;;;;;9.64;49.44;99237.28;5042845;28;45472;-77
2023/04/07 07:22:00;;;;;;;;;7.25;6.00;;;;;9.70;49.01;99244.09;5055996;28;45550;-78
2023/04/07 07:24:25;;;;;;;;;2.00;0.00;;;;;9.70;48.66;99238.84;5072496;28;45518;-79
2023/04/07 07:26:51;;;;;;;;;4.00;4.00;;;;;9.78;48.65;99245.53;5052328;28;45493;-78
2023/04/07 07:29:16;;;;;;;;;6.25;5.00;;;;;9.88;48.57;99243.47;5040782;28;45516;-79
2023/04/07 07:31:42;;;;;;;;;6.25;4.50;;;;;9.97;48.14;99237.84;5048692;28;45433;-79
2023/04/07 07:34:08;;;;;;;;;7.00;5.00;;;;;10.08;48.02;99245.38;5061059;28;46904;-78
2023/04/07 07:36:33;;;;;;;;;5.00;5.00;;;;;10.19;48.01;99243.25;5047517;28;45463;-79
2023/04/07 07:38:58;;;;;;;;;7.00;5.00;;;;;10.31;48.17;99252.47;5056009;28;45336;-79
2023/04/07 07:41:25;;;;;;;;;7.75;7.00;;;;;10.37;48.79;99247.84;5052471;27;45576;-79
2023/04/07 07:43:50;;;;;;;;;10.00;8.33;;;;;10.47;50.13;99253.63;5035796;28;46219;-79
2023/04/07 07:46:16;;;;;;;;;8.67;8.33;;;;;10.53;51.04;99258.66;5052138;28;45420;-79
2023/04/07 07:48:41;;;;;;;;;11.00;7.00;;;;;10.59;51.07;99261.06;5043798;28;45493;-79
2023/04/07 07:51:06;;;;;;;;;13.00;10.67;;;;;10.63;50.97;99261.81;5049129;28;45595;-81
2023/04/07 07:53:32;;;;;;;;;12.75;11.50;;;;;10.60;51.59;99264.56;5061559;28;46430;-81
2023/04/07 07:55:57;;;;;;;;;15.25;12.25;;;;;10.54;51.91;99275.34;5068584;27;45666;-82
2023/04/07 07:58:23;;;;;;;;;12.25;11.00;;;;;10.51;52.72;99293.91;5050842;28;45449;-81
2023/04/07 08:00:48;;;;;;;;;9.50;9.25;;;;;10.45;52.20;99287.94;5062155;28;45409;-82
2023/04/07 08:03:15;;;;;;;;;6.75;5.25;;;;;10.36;52.38;99301.47;5055297;28;45721;-82
2023/04/07 08:05:43;;;;;;;;;12.00;11.00;;;;;10.28;53.59;99308.78;5061165;27;45493;-82
2023/04/07 08:08:09;;;;;;;;;13.67;13.00;;;;;10.25;54.57;99311.50;5048044;28;45417;-83
2023/04/07 08:10:34;;;;;;;;;11.33;10.00;;;;;10.19;54.44;99324.94;5055332;28;45661;-81
2023/04/07 08:13:00;;;;;;;;;11.00;11.00;;;;;10.11;55.00;99317.25;5049052;28;45399;-79
2023/04/07 08:15:26;;;;;;;;;11.67;10.00;;;;;10.10;54.94;99317.28;5047648;28;45416;-80
2023/04/07 08:17:51;;;;;;;;;12.33;12.00;;;;;10.09;55.54;99318.22;5049272;27;45451;-80
2023/04/07 08:20:16;;;;;;;;;14.00;10.33;;;;;10.13;54.01;99323.31;5049745;28;45700;-79
2023/04/07 08:22:42;;;;;;;;;12.33;9.00;;;;;10.16;53.24;99325.00;5046749;28;45937;-79
2023/04/07 08:25:07;;;;;;;;;11.00;9.00;;;;;10.12;53.20;99329.50;5052158;28;45501;-79
2023/04/07 08:27:33;;;;;;;;;11.25;10.50;;;;;10.02;54.85;99336.00;5046360;28;45901;-79
2023/04/07 08:30:05;;;;;;;;;10.67;6.67;;;;;9.99;54.64;99336.13;5049578;28;45516;-80
2023/04/07 08:32:48;;;;;;;;;11.67;10.00;;;;;9.91;55.74;99326.75;5052672;28;46629;-79
2023/04/07 08:35:14;;;;;;;;;14.33;12.00;;;;;9.88;55.98;99338.25;5055127;28;45329;-79
2023/04/07 08:37:41;;;;;;;;;14.00;11.33;;;;;9.88;56.34;99337.41;5051745;28;45442;-79
2023/04/07 08:40:06;;;;;;;;;17.67;16.67;;;;;9.88;56.87;99346.16;5052124;28;45369;-79
2023/04/07 08:42:33;;;;;;;;;13.33;12.67;;;;;9.87;56.98;99346.22;5051074;28;46676;-79
2023/04/07 08:45:05;;;;;;;;;11.67;9.33;;;;;9.87;55.59;99344.44;5052830;28;45419;-79
2023/04/07 08:47:32;;;;;;;;;10.67;9.67;;;;;9.91;55.67;99353.06;5052450;28;45466;-79
2023/04/07 08:50:04;;;;;;;;;7.00;7.00;;;;;9.96;56.03;99359.06;5052900;28;45573;-79
2023/04/07 08:52:43;;;;;;;;;12.00;11.67;;;;;9.98;57.02;99358.09;5042130;28;45532;-79
2023/04/07 08:55:11;;;;;;;;;11.67;11.00;;;;;10.02;56.98;99357.09;5050933;28;45503;-80
2023/04/07 08:57:38;;;;;;;;;11.67;10.33;;;;;10.07;57.37;99356.91;5055162;28;45372;-79
2023/04/07 09:00:08;;;;;;;;;12.67;12.67;;;;;10.12;57.71;99360.25;5053589;28;45391;-80
2023/04/07 09:02:36;;;;;;;;;16.33;15.33;;;;;10.15;57.92;99362.78;5044477;28;45572;-79
2023/04/07 09:05:04;;;;;;;;;21.67;19.00;;;;;10.19;58.26;99368.84;5044708;28;45490;-79
2023/04/07 09:07:34;;;;;;;;;21.67;18.00;;;;;10.25;58.01;99373.88;5050976;28;45625;-78
2023/04/07 09:10:03;;;;;;;;;16.00;14.00;;;;;10.28;57.61;99376.41;5052405;28;45390;-78
2023/04/07 09:12:29;;;;;;;;;23.33;22.33;;;;;10.29;57.98;99376.38;5046746;28;48492;-79
2023/04/07 09:14:58;;;;;;;;;12.00;10.67;;;;;10.30;57.37;99382.50;5058228;28;45621;-78
2023/04/07 09:17:28;;;;;;;;;13.33;12.00;;;;;10.32;57.21;99378.03;5065496;28;45520;-78
2023/04/07 09:19:57;;;;;;;;;14.33;12.33;;;;;10.36;56.87;99384.94;5054897;28;45427;-79
2023/04/07 09:22:42;;;;;;;;;12.67;11.67;;;;;10.38;56.47;99388.38;5057462;28;45419;-79
2023/04/07 09:25:16;;;;;;;;;12.67;10.67;;;;;10.42;57.05;99393.47;5049732;28;45444;-80
2023/04/07 09:28:02;;;;;;;;;11.67;11.67;;;;;10.45;56.69;99382.81;5066507;28;45452;-80
2023/04/07 09:30:30;;;;;;;;;13.00;12.00;;;;;10.48;57.46;99388.00;5042836;28;45940;-80
2023/04/07 09:32:56;;;;;;;;;13.00;9.67;;;;;10.53;56.83;99384.34;5058552;27;47201;-79
2023/04/07 09:35:23;;;;;;;;;18.00;12.00;;;;;10.59;56.90;99392.00;5044047;28;45581;-81
2023/04/07 09:38:06;;;;;;;;;14.33;12.67;;;;;10.61;57.74;99384.91;5068478;28;45481;-81
2023/04/07 09:40:32;;;;;;;;;15.00;15.00;;;;;10.59;57.99;99387.59;5057313;27;45493;-82
2023/04/07 09:42:58;;;;;;;;;11.75;11.75;;;;;10.61;58.31;99390.19;5052678;28;48156;-79
2023/04/07 09:45:25;;;;;;;;;12.75;12.25;;;;;10.62;58.61;99392.78;5054092;28;46160;-79
2023/04/07 09:47:52;;;;;;;;;14.67;14.33;;;;;10.70;58.59;99389.88;5047166;28;45432;-79
2023/04/07 09:50:39;;;;;;;;;16.67;12.33;;;;;10.78;58.74;99385.16;5051589;28;45525;-79
2023/04/07 09:53:05;;;;;;;;;13.67;13.67;;;;;10.87;59.17;99383.97;5051460;28;46344;-79
2023/04/07 09:55:32;;;;;;;;;15.33;13.33;;;;;10.97;58.93;99380.06;5053571;28;45405;-79
2023/04/07 09:57:58;;;;;;;;;13.33;12.33;;;;;11.04;59.77;99384.22;5053426;28;45405;-79
2023/04/07 10:00:25;;;;;;;;;14.67;13.00;;;;;11.14;59.39;99375.88;5051801;28;45456;-80
2023/04/07 10:02:51;;;;;;;;;14.25;13.00;;;;;11.28;59.12;99375.34;5051527;28;45535;-79
2023/04/07 10:05:19;;;;;;;;;16.33;12.67;;;;;11.38;58.90;99378.50;5052468;28;45574;-79
2023/04/07 10:07:46;;;;;;;;;10.00;10.00;;;;;11.53;59.08;99372.59;5053067;28;45571;-79
2023/04/07 10:10:12;;;;;;;;;14.33;12.67;;;;;11.66;59.05;99375.59;5055528;28;45428;-79
2023/04/07 10:12:38;;;;;;;;;12.50;12.25;;;;;11.74;58.65;99382.28;5053744;28;46423;-78
2023/04/07 10:15:04;;;;;;;;;13.75;12.00;;;;;11.78;58.82;99372.50;5050937;28;45465;-79
2023/04/07 10:17:35;;;;;;;;;11.25;9.50;;;;;11.84;58.51;99370.47;5048207;28;45447;-79
2023/04/07 10:20:01;;;;;;;;;12.75;10.25;;;;;11.94;58.15;99370.06;5058848;28;45572;-78
2023/04/07 10:22:27;;;;;;;;;14.75;10.50;;;;;12.03;58.03;99362.63;5072192;27;47880;-78
2023/04/07 10:25:01;;;;;;;;;11.00;11.00;;;;;12.13;57.94;99360.44;5052517;27;45491;-79
2023/04/07 10:27:34;;;;;;;;;2.00;1.00;;;;;12.20;57.24;99361.94;5043044;28;45507;-79
2023/04/07 10:30:03;;;;;;;;;9.50;9.50;;;;;12.21;56.87;99363.66;5052751;28;45561;-79
2023/04/07 10:32:28;;;;;;;;;15.33;14.33;;;;;12.25;57.50;99365.22;5048222;28;48146;-79
2023/04/07 10:34:54;;;;;;;;;19.00;17.33;;;;;12.33;57.10;99360.47;5041466;28;45443;-79
2023/04/07 10:37:21;;;;;;;;;15.00;14.33;;;;;12.42;56.92;99354.75;5056610;28;45461;-79
2023/04/07 10:39:48;;;;;;;;;12.67;11.33;;;;;12.55;57.08;99348.03;5083224;27;45433;-79
2023/04/07 10:42:38;;;;;;;;;12.50;10.25;;;;;12.70;56.50;99342.97;5051433;28;46356;-79
2023/04/07 10:45:05;;;;;;;;;14.00;14.00;;;;;12.78;56.80;99341.69;5053456;28;45879;-79
2023/04/07 10:47:31;;;;;;;;;11.00;10.75;;;;;12.85;56.13;99335.19;5055080;28;45403;-79
2023/04/07 10:50:17;;;;;;;;;12.25;11.25;;;;;12.87;55.87;99333.34;5068981;27;45543;-80
2023/04/07 10:52:43;;;;;;;;;12.00;10.50;;;;;12.86;55.86;99320.19;5056149;28;46498;-79
2023/04/07 10:55:29;;;;;;;;;11.75;11.50;;;;;12.84;55.58;99325.53;5052623;28;45532;-79
2023/04/07 10:58:30;;;;;;;;;10.25;10.00;;;;;12.78;55.58;99330.25;5060401;28;45526;-79
2023/04/07 11:01:08;;;;;;;;;11.25;10.50;;;;;12.77;55.76;99323.22;5039293;28;45352;-80
2023/04/07 11:03:38;;;;;;;;;13.50;13.00;;;;;12.78;56.16;99325.81;5043101;28;45457;-79
2023/04/07 11:06:04;;;;;;;;;15.00;12.25;;;;;12.78;56.09;99315.22;5050208;28;45610;-78
2023/04/07 11:08:41;;;;;;;;;10.00;9.25;;;;;12.77;55.81;99305.56;5055189;28;45503;-78
2023/04/07 11:11:09;;;;;;;;;17.75;12.50;;;;;12.79;56.26;99305.50;5049705;28;45410;-79
2023/04/07 11:13:41;;;;;;;;;12.75;10.75;;;;;12.84;55.71;99292.94;5053744;28;45573;-79
2023/04/07 11:16:32;;;;;;;;;9.25;9.00;;;;;12.86;55.94;99286.63;5068827;27;45413;-78
2023/04/07 11:18:57;;;;;;;;;8.75;8.00;;;;;12.88;55.38;99289.22;5061294;27;45625;-78
2023/04/07 11:21:23;;;;;;;;;8.75;7.50;;;;;12.93;55.47;99293.34;5054107;28;45376;-79
2023/04/07 11:23:48;;;;;;;;;11.00;8.00;;;;;12.98;54.55;99282.56;5051394;28;46426;-79
2023/04/07 11:26:15;;;;;;;;;8.25;6.75;;;;;13.00;54.27;99279.84;5056847;28;45788;-78
2023/04/07 11:28:48;;;;;;;;;4.75;4.75;;;;;13.02;54.27;99277.97;5044326;28;45399;-80
2023/04/07 11:31:27;;;;;;;;;9.75;7.00;;;;;13.06;54.85;99269.81;5054253;28;45562;-78
2023/04/07 11:33:54;;;;;;;;;9.00;7.00;;;;;13.11;54.58;99266.94;5053913;28;45473;-78
2023/04/07 11:36:31;;;;;;;;;10.25;8.00;;;;;13.15;53.84;99252.66;5068522;28;46897;-78